createdAt,value
2018-06-29T00:02:01.973Z,3.63
2018-06-29T00:04:30.284Z,2.23
2018-06-29T00:07:00.349Z,1.80
2018-06-29T00:09:29.514Z,1.60
2018-06-29T00:11:57.632Z,3.10
2018-06-29T00:14:35.482Z,1.80
2018-06-29T00:17:04.866Z,2.30
2018-06-29T00:19:32.960Z,2.00
2018-06-29T00:22:01.463Z,2.00
2018-06-29T00:24:29.707Z,2.10
2018-06-29T00:26:58.631Z,2.07
2018-06-29T00:29:27.515Z,2.40
2018-06-29T00:31:56.318Z,2.10
2018-06-29T00:34:26.122Z,1.90
2018-06-29T00:36:54.552Z,2.00
2018-06-29T00:39:23.812Z,1.53
2018-06-29T00:41:51.859Z,2.20
2018-06-29T00:44:21.975Z,1.53
2018-06-29T00:46:50.295Z,1.70
2018-06-29T00:49:19.277Z,2.13
2018-06-29T00:51:47.437Z,2.00
2018-06-29T00:54:17.113Z,1.53
2018-06-29T00:56:45.534Z,1.70
2018-06-29T00:59:16.441Z,2.20
2018-06-29T01:01:45.589Z,2.10
2018-06-29T01:04:13.996Z,2.30
2018-06-29T01:06:43.462Z,2.57
2018-06-29T01:09:12.959Z,1.90
2018-06-29T01:11:41.438Z,1.70
2018-06-29T01:14:10.202Z,2.17
2018-06-29T01:16:38.338Z,2.30
2018-06-29T01:19:08.027Z,2.17
2018-06-29T01:21:36.657Z,2.30
2018-06-29T01:24:06.110Z,2.40
2018-06-29T01:26:36.675Z,2.10
2018-06-29T01:29:04.859Z,2.00
2018-06-29T01:31:32.978Z,2.10
2018-06-29T01:34:01.840Z,1.80
2018-06-29T01:36:30.625Z,2.50
2018-06-29T01:38:58.769Z,1.93
2018-06-29T01:41:26.881Z,1.70
2018-06-29T01:43:54.988Z,2.00
2018-06-29T01:46:23.481Z,1.90
2018-06-29T01:48:52.000Z,1.70
2018-06-29T01:51:20.734Z,2.20
2018-06-29T01:53:49.673Z,1.97
2018-06-29T01:56:19.056Z,2.37
2018-06-29T01:58:47.413Z,1.80
2018-06-29T02:01:18.230Z,2.17
2018-06-29T02:03:47.808Z,2.17
2018-06-29T02:06:16.859Z,2.50
2018-06-29T02:08:45.984Z,2.03
2018-06-29T02:11:13.996Z,2.87
2018-06-29T02:13:42.748Z,2.63
2018-06-29T02:16:11.184Z,2.17
2018-06-29T02:18:39.853Z,2.93
2018-06-29T02:21:09.786Z,2.60
2018-06-29T02:23:38.444Z,3.13
2018-06-29T02:26:07.477Z,2.57
2018-06-29T02:28:37.076Z,2.60
2018-06-29T02:31:05.280Z,2.60
2018-06-29T02:33:33.878Z,2.70
2018-06-29T02:36:02.690Z,3.43
2018-06-29T02:38:34.214Z,2.70
2018-06-29T02:41:02.563Z,2.83
2018-06-29T02:43:32.470Z,3.00
2018-06-29T02:46:01.105Z,2.80
2018-06-29T02:48:29.787Z,2.77
2018-06-29T02:50:58.927Z,3.27
2018-06-29T02:53:27.940Z,3.43
2018-06-29T02:55:56.027Z,2.70
2018-06-29T02:58:24.247Z,3.10
2018-06-29T03:00:52.659Z,3.33
2018-06-29T03:03:21.270Z,3.37
2018-06-29T03:05:50.425Z,3.63
2018-06-29T03:08:19.877Z,3.80
2018-06-29T03:10:48.049Z,4.10
2018-06-29T03:13:17.447Z,3.90
2018-06-29T03:15:45.731Z,3.57
2018-06-29T03:18:16.981Z,3.60
2018-06-29T03:20:47.598Z,3.50
2018-06-29T03:23:16.092Z,3.57
2018-06-29T03:25:44.429Z,4.33
2018-06-29T03:28:13.948Z,3.97
2018-06-29T03:30:43.041Z,3.90
2018-06-29T03:33:11.698Z,3.20
2018-06-29T03:35:40.504Z,4.10
2018-06-29T03:38:10.535Z,3.33
2018-06-29T03:40:38.910Z,3.47
2018-06-29T03:43:07.221Z,3.83
2018-06-29T03:45:36.104Z,3.30
2018-06-29T03:48:05.885Z,3.90
2018-06-29T03:50:34.112Z,3.40
2018-06-29T03:53:02.772Z,3.90
2018-06-29T03:55:31.890Z,3.80
2018-06-29T03:58:00.102Z,2.97
2018-06-29T04:00:28.330Z,3.23
2018-06-29T04:02:57.716Z,3.70
2018-06-29T04:05:26.746Z,3.43
2018-06-29T04:07:57.438Z,4.20
2018-06-29T04:10:25.955Z,3.97
2018-06-29T04:12:55.381Z,3.83
2018-06-29T04:15:25.095Z,3.80
2018-06-29T04:17:54.206Z,4.20
2018-06-29T04:20:22.302Z,4.70
2018-06-29T04:22:50.908Z,4.20
2018-06-29T04:25:20.879Z,5.03
2018-06-29T04:27:49.456Z,5.63
2018-06-29T04:30:20.116Z,5.27
2018-06-29T04:32:48.196Z,5.37
2018-06-29T04:35:16.864Z,6.10
2018-06-29T04:37:46.024Z,5.90
2018-06-29T04:40:15.095Z,5.70
2018-06-29T04:42:43.244Z,5.20
2018-06-29T04:45:13.736Z,6.07
2018-06-29T04:47:43.272Z,5.73
2018-06-29T04:50:13.428Z,5.87
2018-06-29T04:52:43.186Z,6.77
2018-06-29T04:55:13.145Z,6.03
2018-06-29T04:57:41.248Z,6.73
2018-06-29T05:00:11.498Z,6.10
2018-06-29T05:02:40.969Z,6.50
2018-06-29T05:05:11.060Z,7.53
2018-06-29T05:07:40.209Z,7.80
2018-06-29T05:10:10.569Z,6.40
2018-06-29T05:12:39.432Z,6.73
2018-06-29T05:15:09.799Z,7.00
2018-06-29T05:17:38.710Z,6.63
2018-06-29T05:20:08.592Z,6.80
2018-06-29T05:22:37.681Z,7.07
2018-06-29T05:25:07.350Z,7.20
2018-06-29T05:27:36.013Z,6.87
2018-06-29T05:30:06.942Z,6.60
2018-06-29T05:32:37.147Z,6.30
2018-06-29T05:35:14.334Z,6.60
2018-06-29T05:37:42.867Z,6.00
2018-06-29T05:40:13.274Z,6.43
2018-06-29T05:42:44.651Z,6.90
2018-06-29T05:45:12.877Z,7.20
2018-06-29T05:47:42.152Z,6.33
2018-06-29T05:50:13.221Z,6.30
2018-06-29T05:52:44.306Z,6.20
2018-06-29T05:55:15.316Z,6.43
2018-06-29T05:57:47.288Z,5.90
2018-06-29T06:00:17.832Z,6.40
2018-06-29T06:02:48.565Z,7.40
2018-06-29T06:05:19.341Z,6.90
2018-06-29T06:07:49.381Z,5.87
2018-06-29T06:10:21.312Z,7.13
2018-06-29T06:12:54.376Z,5.80
2018-06-29T06:15:26.539Z,6.80
2018-06-29T06:17:56.042Z,6.40
2018-06-29T06:20:27.879Z,6.43
2018-06-29T06:23:03.855Z,6.13
2018-06-29T06:25:34.316Z,7.03
2018-06-29T06:47:25.604Z,5.13
2018-06-29T06:49:56.825Z,5.53
2018-06-29T06:52:28.649Z,6.20
2018-06-29T06:55:00.718Z,5.13
2018-06-29T06:57:33.943Z,5.50
2018-06-29T07:00:07.226Z,5.43
2018-06-29T07:02:39.280Z,5.30
2018-06-29T07:14:49.590Z,4.70
2018-06-29T07:17:22.037Z,3.90
2018-06-29T07:19:54.038Z,4.30
2018-06-29T07:22:24.237Z,4.40
2018-06-29T07:24:54.841Z,3.47
2018-06-29T07:27:26.851Z,4.00
2018-06-29T07:29:57.871Z,3.80
2018-06-29T07:32:30.439Z,3.63
2018-06-29T07:35:00.789Z,4.00
2018-06-29T07:37:32.234Z,4.30
2018-06-29T07:40:00.501Z,5.30
2018-06-29T07:42:30.297Z,3.13
2018-06-29T07:45:01.013Z,3.50
2018-06-29T07:47:30.523Z,3.13
2018-06-29T07:50:01.706Z,3.07
2018-06-29T07:52:34.751Z,2.83
2018-06-29T07:55:04.779Z,3.40
2018-06-29T07:57:38.010Z,3.27
2018-06-29T08:00:10.811Z,2.97
2018-06-29T08:02:42.572Z,2.27
2018-06-29T08:05:16.713Z,2.20
2018-06-29T08:13:43.112Z,2.27
2018-06-29T08:16:14.770Z,2.30
2018-06-29T08:18:45.648Z,2.87
2018-06-29T08:21:17.790Z,2.80
2018-06-29T08:23:50.601Z,2.57
2018-06-29T08:26:25.987Z,2.50
2018-06-29T08:28:59.513Z,2.33
2018-06-29T08:44:26.268Z,2.90
2018-06-29T08:46:57.097Z,2.40
2018-06-29T08:49:30.174Z,2.10
2018-06-29T08:52:01.899Z,3.70
2018-06-29T08:54:37.229Z,2.50
2018-06-29T08:57:10.602Z,2.73
2018-06-29T08:59:41.997Z,3.23
2018-06-29T09:02:11.996Z,2.40
2018-06-29T09:04:43.560Z,2.70
2018-06-29T09:07:15.721Z,3.17
2018-06-29T09:22:42.726Z,2.10
2018-06-29T09:25:16.604Z,2.77
2018-06-29T09:36:28.313Z,2.40
2018-06-29T09:38:59.713Z,2.30
2018-06-29T09:41:30.660Z,2.23
2018-06-29T09:53:41.688Z,1.93
2018-06-29T09:56:13.169Z,1.80
2018-06-29T09:58:43.920Z,2.00
2018-06-29T10:01:18.177Z,2.33
2018-06-29T10:18:33.909Z,2.10
2018-06-29T10:21:08.030Z,1.93
2018-06-29T10:23:42.645Z,1.77
2018-06-29T10:26:16.662Z,2.10
2018-06-29T10:28:48.465Z,1.80
2018-06-29T10:31:17.565Z,1.73
2018-06-29T10:33:46.744Z,2.30
2018-06-29T10:36:17.726Z,1.90
2018-06-29T10:38:49.294Z,1.50
2018-06-29T10:41:20.566Z,1.93
2018-06-29T10:43:50.590Z,2.00
2018-06-29T10:46:27.232Z,1.70
2018-06-29T10:48:58.222Z,1.30
2018-06-29T10:51:30.221Z,1.20
2018-06-29T10:54:00.389Z,1.67
2018-06-29T10:56:31.569Z,1.60
2018-06-29T11:08:43.898Z,1.90
2018-06-29T11:11:15.058Z,1.80
2018-06-29T11:13:46.463Z,1.23
2018-06-29T11:16:19.130Z,1.27
2018-06-29T11:18:50.573Z,1.30
2018-06-29T11:21:25.269Z,1.27
2018-06-29T11:23:58.525Z,1.57
2018-06-29T11:42:40.706Z,1.53
2018-06-29T12:00:35.863Z,1.60
2018-06-29T12:03:10.787Z,1.30
2018-06-29T12:05:42.963Z,1.33
2018-06-29T12:08:15.760Z,1.13
2018-06-29T12:20:34.946Z,1.50
2018-06-29T12:23:06.922Z,0.87
2018-06-29T12:25:40.092Z,0.90
2018-06-29T12:28:10.949Z,1.00
2018-06-29T12:30:41.502Z,1.30
2018-06-29T12:33:10.961Z,0.90
2018-06-29T12:35:43.044Z,1.00
2018-06-29T12:38:16.799Z,1.40
2018-06-29T12:40:48.274Z,1.47
2018-06-29T12:43:18.058Z,1.33
2018-06-29T12:45:47.789Z,1.30
2018-06-29T12:48:18.857Z,1.40
2018-06-29T12:50:50.207Z,1.27
2018-06-29T12:53:21.394Z,1.60
2018-06-29T12:58:26.441Z,1.33
2018-06-29T13:00:57.725Z,1.37
2018-06-29T13:03:27.827Z,0.93
2018-06-29T13:22:04.864Z,1.30
2018-06-29T13:24:34.756Z,1.57
2018-06-29T13:27:07.207Z,1.40
2018-06-29T13:29:38.177Z,1.07
2018-06-29T13:32:08.731Z,1.33
2018-06-29T13:47:34.609Z,1.60
2018-06-29T13:50:06.124Z,1.60
2018-06-29T13:52:38.356Z,1.40
2018-06-29T13:55:09.501Z,1.67
2018-06-29T13:57:39.232Z,1.43
2018-06-29T14:00:11.397Z,1.50
2018-06-29T14:02:41.201Z,1.57
2018-06-29T14:05:11.866Z,2.10
2018-06-29T14:07:42.094Z,1.70
2018-06-29T14:10:14.109Z,1.53
2018-06-29T14:12:45.625Z,2.10
2018-06-29T14:15:16.606Z,1.80
2018-06-29T14:17:48.039Z,1.70
2018-06-29T14:20:19.223Z,2.00
2018-06-29T14:22:50.783Z,1.67
2018-06-29T14:25:23.386Z,1.60
2018-06-29T14:27:53.467Z,1.57
2018-06-29T14:30:25.128Z,1.40
2018-06-29T14:32:57.705Z,1.30
2018-06-29T14:35:29.004Z,1.50
2018-06-29T14:38:00.951Z,2.20
2018-06-29T14:40:32.224Z,1.77
2018-06-29T14:43:01.951Z,1.70
2018-06-29T14:45:33.271Z,1.50
2018-06-29T14:48:06.352Z,1.83
2018-06-29T15:03:32.976Z,1.80
2018-06-29T15:06:03.166Z,2.13
2018-06-29T15:08:33.877Z,1.70
2018-06-29T15:11:04.550Z,2.10
2018-06-29T15:13:35.589Z,3.23
2018-06-29T15:16:06.955Z,1.93
2018-06-29T15:18:38.352Z,1.57
2018-06-29T15:21:09.080Z,1.90
2018-06-29T15:23:40.311Z,2.00
2018-06-29T15:26:10.311Z,1.80
2018-06-29T15:28:40.557Z,1.87
2018-06-29T15:31:10.477Z,1.60
2018-06-29T15:33:41.478Z,2.20
2018-06-29T15:36:11.707Z,2.10
2018-06-29T15:38:41.273Z,1.50
2018-06-29T15:41:12.774Z,1.90
2018-06-29T15:43:42.832Z,2.00
2018-06-29T15:59:18.226Z,1.90
2018-06-29T16:01:49.215Z,2.20
2018-06-29T16:04:20.731Z,1.70
2018-06-29T16:06:53.237Z,1.60
2018-06-29T16:09:26.009Z,1.83
2018-06-29T16:12:00.093Z,1.90
2018-06-29T16:14:32.172Z,1.93
2018-06-29T16:17:05.635Z,2.13
2018-06-29T16:19:36.505Z,1.87
2018-06-29T16:22:07.338Z,2.00
2018-06-29T16:24:39.798Z,1.83
2018-06-29T16:27:09.978Z,2.30
2018-06-29T16:29:39.601Z,2.03
2018-06-29T16:32:10.201Z,1.93
2018-06-29T16:34:41.416Z,1.77
2018-06-29T16:37:12.494Z,2.20
2018-06-29T16:39:43.345Z,1.83
2018-06-29T16:42:15.793Z,3.17
2018-06-29T16:44:46.567Z,18.40
2018-06-29T16:47:19.137Z,8.77
2018-06-29T16:49:52.077Z,4.30
2018-06-29T16:52:21.354Z,4.83
2018-06-29T16:54:53.307Z,3.73
2018-06-29T16:57:26.072Z,3.17
2018-06-29T16:59:56.448Z,2.80
2018-06-29T17:02:27.104Z,2.27
2018-06-29T17:04:57.433Z,2.50
2018-06-29T17:16:20.608Z,2.50
2018-06-29T17:18:54.110Z,2.60
2018-06-29T17:21:28.116Z,2.50
2018-06-29T17:24:01.738Z,2.90
2018-06-29T17:26:34.145Z,3.17
2018-06-29T17:29:06.230Z,3.20
2018-06-29T17:31:36.817Z,3.23
2018-06-29T17:34:08.383Z,3.33
2018-06-29T17:36:39.901Z,3.87
2018-06-29T17:39:11.203Z,3.37
2018-06-29T17:41:41.395Z,3.80
2018-06-29T17:44:11.608Z,3.17
2018-06-29T17:46:43.581Z,3.20
2018-06-29T17:49:13.440Z,3.37
2018-06-29T17:51:43.400Z,3.27
2018-06-29T17:54:13.438Z,3.77
2018-06-29T17:56:45.876Z,2.80
2018-06-29T17:59:18.406Z,3.57
2018-06-29T18:01:48.320Z,2.77
2018-06-29T18:04:18.912Z,2.53
2018-06-29T18:06:49.449Z,2.53
2018-06-29T18:09:20.217Z,3.00
2018-06-29T18:11:52.299Z,2.53
2018-06-29T18:20:17.802Z,2.30
2018-06-29T18:22:56.909Z,2.70
2018-06-29T18:25:31.275Z,2.77
2018-06-29T18:28:03.987Z,3.40
2018-06-29T18:43:23.188Z,2.33
2018-06-29T18:45:53.183Z,2.50
2018-06-29T18:48:23.502Z,2.47
2018-06-29T18:50:54.540Z,2.50
2018-06-29T18:53:23.700Z,3.10
2018-06-29T20:02:09.170Z,3.27
2018-06-29T20:04:41.239Z,3.57
2018-06-29T20:07:11.098Z,3.70
2018-06-29T20:09:41.044Z,4.43
2018-06-29T20:12:11.500Z,4.17
2018-06-29T20:14:42.379Z,4.10
2018-06-29T20:17:12.438Z,3.87
2018-06-29T20:19:43.363Z,4.83
2018-06-29T20:22:14.240Z,4.80
2018-06-29T20:24:50.176Z,3.87
2018-06-29T20:27:21.531Z,4.07
2018-06-29T20:29:51.775Z,4.37
2018-06-29T20:32:22.133Z,4.73
2018-06-29T20:34:52.377Z,4.87
2018-06-29T20:37:23.331Z,4.27
2018-06-29T20:39:54.583Z,4.57
2018-06-29T20:42:25.413Z,4.57
2018-06-29T20:44:56.176Z,4.90
2018-06-29T20:47:27.037Z,5.10
2018-06-29T20:49:56.553Z,4.80
2018-06-29T20:52:27.784Z,5.10
2018-06-29T20:54:59.266Z,5.20
2018-06-29T20:57:30.009Z,5.20
2018-06-29T20:59:59.961Z,5.70
2018-06-29T21:02:31.696Z,5.37
2018-06-29T21:05:02.457Z,5.20
2018-06-29T21:07:33.075Z,5.90
2018-06-29T21:10:04.366Z,6.10
2018-06-29T21:12:37.238Z,6.17
2018-06-29T21:15:08.456Z,6.27
2018-06-29T21:17:39.257Z,6.50
2018-06-29T21:20:09.209Z,6.10
2018-06-29T21:22:40.062Z,6.57
2018-06-29T21:25:09.681Z,6.10
2018-06-29T21:27:39.798Z,6.60
2018-06-29T21:30:09.969Z,5.90
2018-06-29T21:32:40.134Z,7.20
2018-06-29T21:35:09.227Z,6.67
2018-06-29T21:37:39.234Z,6.93
2018-06-29T21:40:09.770Z,6.37
2018-06-29T21:42:42.616Z,6.70
2018-06-29T21:45:11.959Z,6.13
2018-06-29T21:47:41.638Z,6.10
2018-06-29T21:50:15.474Z,6.90
2018-06-29T21:52:46.067Z,5.90
2018-06-29T21:55:17.839Z,6.77
2018-06-29T21:57:47.380Z,7.07
2018-06-29T22:13:11.426Z,6.13
2018-06-29T22:15:41.400Z,5.90
2018-06-29T22:18:12.488Z,6.80
2018-06-29T22:20:42.392Z,6.40
2018-06-29T22:23:10.699Z,6.27
2018-06-29T22:25:41.326Z,6.90
2018-06-29T22:28:09.976Z,6.10
2018-06-29T22:30:39.848Z,6.90
2018-06-29T22:33:09.461Z,6.80
2018-06-29T22:35:39.247Z,6.70
2018-06-29T22:38:09.224Z,7.43
2018-06-29T22:40:40.461Z,7.30
2018-06-29T22:43:11.466Z,6.90
2018-06-29T22:45:40.989Z,6.87
2018-06-29T22:48:13.040Z,7.17
2018-06-29T22:50:43.717Z,7.30
2018-06-29T22:53:12.866Z,6.70
2018-06-29T22:55:44.390Z,6.80
2018-06-29T22:58:14.742Z,6.20
2018-06-29T23:00:44.597Z,7.00
2018-06-29T23:03:13.651Z,6.37
2018-06-29T23:05:43.878Z,6.23
2018-06-29T23:08:14.330Z,6.27
2018-06-29T23:10:45.176Z,6.63
2018-06-29T23:13:16.393Z,5.60
2018-06-29T23:15:48.691Z,6.40
2018-06-29T23:18:21.925Z,5.80
2018-06-29T23:20:52.308Z,6.50
2018-06-29T23:23:21.306Z,6.50
2018-06-29T23:25:50.202Z,6.87
2018-06-29T23:28:23.543Z,6.37
2018-06-29T23:30:54.507Z,5.47
2018-06-29T23:33:24.435Z,6.70
2018-06-29T23:35:57.188Z,6.20
2018-06-29T23:38:32.949Z,6.13
2018-06-29T23:41:04.285Z,6.93
2018-06-29T23:43:37.262Z,7.87
2018-06-29T23:46:09.737Z,7.27
2018-06-29T23:48:42.310Z,6.90
2018-06-29T23:51:15.348Z,7.40
2018-06-29T23:53:49.194Z,7.67
2018-06-29T23:56:21.997Z,7.00
2018-06-29T23:58:52.201Z,7.17
